메인 페이지
METAR-TAF:

METAR-TAF

공항 :

주노, 알래스카, 미국

위도: 58-21-17N, 경도: 134-34-34W, 고도: 6m

현재 날씨관측

예보는 32분 전, 21:53시(UTC)에 발표되었습니다.
무풍
온도 -2°C
습도 93%
기압 1011 hPa
시정: 1.6km
고도 700ft 상공 구름 조금
고도 1600ft 상공 구름 많음
고도 4300ft 상공 흐림
약한눈, 박무

METAR: PAJN 202153Z 00000KT 1SM R08/4500V5500FT -SN BR FEW007 BKN016 OVC043 M02/M03 A2985 RMK AO2 TWR VIS 1 1/2 SLP108 P0002 T10171028 $

시각: 13:25 (22:25 UTC)

예보

예보는 2 시간 56분 전, 19:29시(UTC)에 발표되었습니다.
예보 대상 시간: 20일 19시부터 21일 18시까지 (UTC)
3kt
시정: 6.4km
고도 500ft 상공 구름 조금
고도 2300ft 상공 구름 보통
고도 4000ft 상공 흐림
약한소낙눈, 박무
일시적
20일 19시부터 20일 22시까지 (UTC)
시정: 3.2km
고도 500ft 상공 구름 보통
고도 1200ft 상공 구름 많음
고도 3000ft 상공 흐림
약한소낙눈, 박무
21일 0400시부터 (UTC)
동남동3kt
시정: 3.2km
고도 1500ft 상공 구름 많음
고도 2500ft 상공 흐림
약한소낙눈, 박무
21일 1100시부터 (UTC)
동남동10kt
시정: 6.4km
고도 1500ft 상공 흐림
약한소나기

TAF: PAJN 201929Z 2019/2118 10003KT 4SM -SHSN BR FEW005 SCT023 OVC040 TEMPO 2019/2022 2SM -SHSN BR SCT005 BKN012 OVC030 FM210400 11003KT 2SM -SHSN BR BKN015 OVC025 FM211100 11010KT 4SM -SHRA OVC015

4,000개 이상의 공항 관측 자료 및 예보 (METAR 및 TAF 보고).

지도상에서 검색 가능한 기상관측소가 노란 점과 빨간 점으로 표시되어 있습니다.

기상관측소 명을 보려면 표시 위로 마우스를 이동하세요.

날씨 관측과 예보를 보려면 클릭하세요.

지도 변경 : 확대하려면 엑스 표시가 있는 녹색 버튼, 축소하려면 빼기 표시가 있는 녹색 버튼, 다음 페이지의 지도를 보려면 녹색 화살표를 클릭하세요.


METAR-TAF: